Time;durP1;ratioP1;P1;durP2;ratioP2;P2;SDS_P1;SDS_P2;PMS_P1;PMS_P2;Temp;Humidity;BMP_temperature;BMP_pressure;BME280_temperature;BME280_humidity;BME280_pressure;Samples;Min_cycle;Max_cycle;Signal;HPM_P1;HPM_P2
2023/11/02 00:02:26;;;;;;;6.90;1.50;;;12.20;99.90;;;;;;5012580;28;20057;-70
2023/11/02 00:04:53;;;;;;;6.22;1.80;;;12.20;99.90;;;;;;5013417;28;20036;-69
2023/11/02 00:07:19;;;;;;;7.32;2.08;;;12.10;99.90;;;;;;5014358;28;20033;-68
2023/11/02 00:09:45;;;;;;;8.00;2.25;;;12.10;99.90;;;;;;5012861;28;20063;-68
2023/11/02 00:12:19;;;;;;;5.90;1.67;;;12.00;99.90;;;;;;5012689;28;20501;-69
2023/11/02 00:14:47;;;;;;;3.25;1.60;;;12.00;99.90;;;;;;5023410;28;20041;-70
2023/11/02 00:17:35;;;;;;;3.60;1.27;;;12.00;99.90;;;;;;5017863;28;20030;-69
2023/11/02 00:20:15;;;;;;;4.88;1.27;;;12.10;99.90;;;;;;5017415;28;20046;-72
2023/11/02 00:22:44;;;;;;;5.70;1.95;;;12.10;99.90;;;;;;5014913;28;20441;-68
2023/11/02 00:25:15;;;;;;;8.35;1.42;;;12.20;99.90;;;;;;5021994;28;20032;-71
2023/11/02 00:27:40;;;;;;;4.45;1.40;;;12.20;99.90;;;;;;5021457;28;20551;-68
2023/11/02 00:30:06;;;;;;;5.43;1.70;;;12.30;99.90;;;;;;5016419;28;20034;-69
2023/11/02 00:32:32;;;;;;;2.85;1.15;;;12.30;99.90;;;;;;5020396;28;20069;-70
2023/11/02 00:34:58;;;;;;;3.53;1.63;;;12.30;99.90;;;;;;5012468;28;20097;-76
2023/11/02 00:37:23;;;;;;;7.67;2.20;;;12.30;99.90;;;;;;5018411;28;20026;-70
2023/11/02 00:39:49;;;;;;;8.37;1.60;;;12.30;99.90;;;;;;5018580;28;20095;-72
2023/11/02 00:42:15;;;;;;;6.37;1.90;;;12.30;99.90;;;;;;5019720;28;20068;-72
2023/11/02 00:44:45;;;;;;;4.40;1.70;;;12.40;99.90;;;;;;5013068;28;20120;-75
2023/11/02 00:47:14;;;;;;;5.43;1.67;;;12.40;99.90;;;;;;5024327;28;20053;-71
2023/11/02 00:49:40;;;;;;;6.25;2.45;;;12.50;99.90;;;;;;5018181;28;20390;-73
2023/11/02 00:52:06;;;;;;;5.07;1.57;;;12.40;99.90;;;;;;5016260;28;20034;-70
2023/11/02 00:54:44;;;;;;;6.72;2.13;;;12.40;99.90;;;;;;5018090;28;20046;-70
2023/11/02 00:57:14;;;;;;;6.82;1.80;;;12.30;99.90;;;;;;5020609;28;20025;-68
2023/11/02 00:59:40;;;;;;;4.55;1.58;;;12.40;99.90;;;;;;5014769;28;20061;-68
2023/11/02 01:02:07;;;;;;;4.55;1.65;;;12.40;99.90;;;;;;5020090;28;20555;-67
2023/11/02 01:04:39;;;;;;;14.98;2.10;;;12.40;99.90;;;;;;5011177;28;20398;-69
2023/11/02 01:07:04;;;;;;;6.82;1.83;;;12.50;99.90;;;;;;5023361;28;20018;-68
2023/11/02 01:09:59;;;;;;;3.77;1.70;;;12.50;99.90;;;;;;5016724;28;20041;-69
2023/11/02 01:12:36;;;;;;;4.45;1.55;;;12.50;99.90;;;;;;5012702;28;20048;-68
2023/11/02 01:15:06;;;;;;;7.68;2.00;;;12.60;99.90;;;;;;5016203;28;20033;-70
2023/11/02 01:17:36;;;;;;;10.07;2.25;;;12.50;99.90;;;;;;5018124;28;20025;-70
2023/11/02 01:20:10;;;;;;;5.35;2.05;;;12.50;99.90;;;;;;5017590;28;20073;-69
2023/11/02 01:23:02;;;;;;;9.18;1.95;;;12.50;99.90;;;;;;5017308;28;20029;-73
2023/11/02 01:25:30;;;;;;;8.70;2.22;;;12.70;99.90;;;;;;5021039;28;20122;-68
2023/11/02 01:28:02;;;;;;;4.65;2.05;;;12.60;99.90;;;;;;5024031;28;20034;-71
2023/11/02 01:30:37;;;;;;;4.78;2.22;;;12.60;99.90;;;;;;5025605;28;20033;-68
2023/11/02 01:33:38;;;;;;;8.18;1.65;;;12.60;99.90;;;;;;5025678;28;20505;-69
2023/11/02 01:36:05;;;;;;;3.75;1.50;;;12.60;99.90;;;;;;5026598;28;20095;-69
2023/11/02 01:38:32;;;;;;;5.90;2.30;;;12.60;99.90;;;;;;5028980;28;20045;-69
2023/11/02 01:41:03;;;;;;;7.85;1.83;;;12.50;99.90;;;;;;5030517;28;20083;-70
2023/11/02 01:43:50;;;;;;;4.18;1.70;;;12.50;99.90;;;;;;5029549;28;20021;-68
2023/11/02 01:46:26;;;;;;;5.67;1.50;;;12.50;99.90;;;;;;5029272;28;20025;-71
2023/11/02 01:49:04;;;;;;;8.32;1.75;;;12.60;99.90;;;;;;5029840;28;20256;-67
2023/11/02 01:51:52;;;;;;;3.63;1.70;;;12.60;99.90;;;;;;5030522;28;20033;-69
2023/11/02 01:54:26;;;;;;;4.32;1.80;;;12.60;99.90;;;;;;5009497;28;20042;-69
2023/11/02 01:57:03;;;;;;;6.57;2.83;;;12.60;99.90;;;;;;5008860;28;20026;-69
2023/11/02 01:59:35;;;;;;;;;;;12.70;99.90;;;;;;5010402;28;20034;-70
2023/11/02 02:02:21;;;;;;;8.93;1.60;;;12.90;99.90;;;;;;5009698;28;19929;-70
2023/11/02 02:04:53;;;;;;;2.65;1.13;;;12.90;99.90;;;;;;5009340;28;20072;-70
2023/11/02 02:07:33;;;;;;;5.35;2.10;;;12.80;99.90;;;;;;5009233;28;20038;-68
2023/11/02 02:10:22;;;;;;;8.82;1.30;;;12.80;99.90;;;;;;5009835;28;20592;-68
2023/11/02 02:12:53;;;;;;;8.07;1.60;;;12.80;99.90;;;;;;5009741;28;20065;-72
2023/11/02 02:15:22;;;;;;;3.85;1.48;;;12.80;99.90;;;;;;5017030;28;20041;-71
2023/11/02 02:18:12;;;;;;;7.35;1.80;;;12.90;99.90;;;;;;5028788;28;20025;-71
2023/11/02 02:20:42;;;;;;;5.63;1.75;;;13.00;99.90;;;;;;5029333;28;20037;-70
2023/11/02 02:23:31;;;;;;;6.93;1.50;;;12.90;99.90;;;;;;5028675;28;20022;-68
2023/11/02 02:26:15;;;;;;;7.30;2.03;;;12.90;99.90;;;;;;5029098;28;20033;-68
2023/11/02 02:28:44;;;;;;;6.93;1.17;;;12.90;99.90;;;;;;5028977;28;20021;-69
2023/11/02 02:31:39;;;;;;;6.57;1.90;;;12.90;99.90;;;;;;5028898;28;20037;-68
2023/11/02 02:34:17;;;;;;;5.00;1.77;;;12.90;99.90;;;;;;5029162;28;20045;-68
2023/11/02 02:36:42;;;;;;;6.15;1.33;;;12.80;99.90;;;;;;5028644;28;20389;-69
2023/11/02 02:39:10;;;;;;;6.53;1.40;;;12.90;99.90;;;;;;5028515;28;20033;-68
2023/11/02 02:41:40;;;;;;;5.38;1.73;;;12.80;99.90;;;;;;5028837;28;20037;-69
2023/11/02 02:44:10;;;;;;;10.10;1.75;;;12.80;99.90;;;;;;5026698;28;20033;-69
2023/11/02 02:46:38;;;;;;;11.18;1.70;;;12.80;99.90;;;;;;5021433;28;20036;-69
2023/11/02 02:49:04;;;;;;;8.98;1.40;;;12.80;99.90;;;;;;5016805;28;20022;-71
2023/11/02 02:51:30;;;;;;;6.03;1.80;;;12.90;99.90;;;;;;5008809;28;20026;-70
2023/11/02 02:54:06;;;;;;;7.70;1.60;;;12.80;99.90;;;;;;5023383;28;20331;-69
2023/11/02 02:56:33;;;;;;;10.98;2.00;;;12.90;99.90;;;;;;5029114;28;20661;-69
2023/11/02 02:59:04;;;;;;;6.55;1.42;;;13.00;99.90;;;;;;5028366;28;20053;-69
2023/11/02 03:01:40;;;;;;;7.63;1.88;;;13.00;99.90;;;;;;5018277;28;20033;-71
2023/11/02 03:04:18;;;;;;;6.88;1.58;;;13.10;99.90;;;;;;5008640;28;20029;-68
2023/11/02 03:06:50;;;;;;;8.65;1.35;;;13.00;99.90;;;;;;5008525;28;20370;-69
2023/11/02 03:09:20;;;;;;;6.50;1.63;;;13.00;99.90;;;;;;5007672;28;20032;-68
2023/11/02 03:11:46;;;;;;;4.80;1.40;;;13.00;99.90;;;;;;5006826;28;20022;-71
2023/11/02 03:14:13;;;;;;;7.90;1.50;;;13.10;99.90;;;;;;5006867;28;20048;-71
2023/11/02 03:16:43;;;;;;;4.05;1.67;;;13.00;99.90;;;;;;5006475;28;20038;-68
2023/11/02 03:19:19;;;;;;;5.72;1.95;;;12.90;99.90;;;;;;5007063;28;20087;-72
2023/11/02 03:21:44;;;;;;;3.00;1.30;;;12.90;99.90;;;;;;5006847;28;20036;-68
2023/11/02 03:24:35;;;;;;;10.67;1.90;;;13.00;99.90;;;;;;5006869;28;20021;-67
2023/11/02 03:27:06;;;;;;;3.35;1.70;;;13.00;99.90;;;;;;5007248;28;20042;-68
2023/11/02 03:29:50;;;;;;;7.57;1.80;;;13.00;99.90;;;;;;5008032;28;20268;-69
2023/11/02 03:32:21;;;;;;;8.65;2.03;;;12.90;99.90;;;;;;5006394;28;20028;-68
2023/11/02 03:35:16;;;;;;;5.90;2.17;;;12.80;99.90;;;;;;5005917;28;20644;-68
2023/11/02 03:38:23;;;;;;;3.60;1.65;;;12.90;99.90;;;;;;5020181;28;20057;-67
2023/11/02 03:41:13;;;;;;;6.35;1.83;;;12.90;99.90;;;;;;5003174;28;20449;-68
2023/11/02 03:44:00;;;;;;;5.97;1.58;;;13.10;99.90;;;;;;5024848;28;20025;-69
2023/11/02 03:46:32;;;;;;;3.08;1.23;;;13.10;99.90;;;;;;5022456;28;20025;-68
2023/11/02 03:49:10;;;;;;;7.30;1.15;;;13.00;99.90;;;;;;5016122;28;20038;-71
2023/11/02 03:51:37;;;;;;;3.22;1.67;;;13.00;99.90;;;;;;5016956;28;20041;-69
2023/11/02 03:54:15;;;;;;;4.80;1.75;;;13.10;99.90;;;;;;5027904;28;20489;-70
2023/11/02 03:57:16;;;;;;;6.93;1.70;;;13.10;99.90;;;;;;5016342;28;20048;-68
2023/11/02 03:59:45;;;;;;;3.58;1.60;;;13.00;99.90;;;;;;5014405;28;20030;-67
2023/11/02 04:02:27;;;;;;;2.42;1.13;;;13.10;99.90;;;;;;5017010;28;20593;-69
2023/11/02 04:05:00;;;;;;;11.55;2.17;;;13.10;99.90;;;;;;5017414;28;20043;-69
2023/11/02 04:07:40;;;;;;;5.63;1.40;;;13.10;99.90;;;;;;5013441;28;20072;-69
2023/11/02 04:10:08;;;;;;;4.78;1.58;;;13.00;99.90;;;;;;5009854;28;20030;-69
2023/11/02 04:12:55;;;;;;;3.67;1.15;;;13.20;99.90;;;;;;5021177;28;20640;-68
2023/11/02 04:15:21;;;;;;;2.95;1.45;;;13.20;99.90;;;;;;5017459;28;20045;-68
2023/11/02 04:17:47;;;;;;;8.82;1.50;;;13.20;99.90;;;;;;5017928;28;20497;-67
2023/11/02 04:20:14;;;;;;;4.50;1.67;;;13.20;99.90;;;;;;5014866;28;20077;-71
2023/11/02 04:22:40;;;;;;;6.63;1.50;;;13.20;99.90;;;;;;5008304;28;20025;-69
2023/11/02 04:25:06;;;;;;;3.80;1.52;;;13.20;99.90;;;;;;5017905;28;20084;-71
2023/11/02 04:27:31;;;;;;;4.45;1.38;;;13.10;99.90;;;;;;5018061;28;20107;-69
2023/11/02 04:29:57;;;;;;;5.40;1.30;;;13.20;99.90;;;;;;5014977;28;20500;-67
2023/11/02 04:32:23;;;;;;;6.23;1.67;;;13.20;99.90;;;;;;5016041;28;20030;-70
2023/11/02 04:34:48;;;;;;;7.63;1.57;;;13.30;99.90;;;;;;5015535;28;20501;-68
2023/11/02 04:37:15;;;;;;;8.20;1.52;;;13.30;99.90;;;;;;5016169;28;20029;-68
2023/11/02 04:39:44;;;;;;;5.65;1.63;;;13.40;99.90;;;;;;5017330;28;20044;-72
2023/11/02 04:42:11;;;;;;;9.55;1.98;;;13.40;99.90;;;;;;5018229;28;20022;-70
2023/11/02 04:44:37;;;;;;;9.98;1.92;;;13.20;99.90;;;;;;5023643;28;20025;-70
2023/11/02 04:47:03;;;;;;;4.03;1.67;;;13.20;99.90;;;;;;5020874;28;20033;-68
2023/11/02 04:49:29;;;;;;;;;;;13.20;99.90;;;;;;5017166;28;20288;-68
2023/11/02 04:52:02;;;;;;;3.50;1.33;;;13.30;99.90;;;;;;5017681;28;19980;-68
2023/11/02 04:54:29;;;;;;;6.35;1.40;;;13.30;99.90;;;;;;5014287;28;20045;-68
2023/11/02 04:56:55;;;;;;;6.90;1.40;;;13.30;99.90;;;;;;5015529;28;20033;-72
2023/11/02 04:59:22;;;;;;;6.87;1.10;;;13.50;99.90;;;;;;5014932;28;20030;-76
2023/11/02 05:01:48;;;;;;;9.68;2.42;;;13.50;99.90;;;;;;5019320;28;20284;-67
2023/11/02 05:04:14;;;;;;;12.35;1.30;;;13.30;99.90;;;;;;5017314;28;20102;-68
2023/11/02 05:06:40;;;;;;;10.98;1.40;;;13.30;99.90;;;;;;5012946;28;20080;-68
2023/11/02 05:09:05;;;;;;;4.47;1.50;;;13.30;99.90;;;;;;5016534;28;20621;-68
2023/11/02 05:11:31;;;;;;;7.60;1.20;;;13.40;99.90;;;;;;5015708;28;20084;-69
2023/11/02 05:13:57;;;;;;;4.25;1.38;;;13.50;99.90;;;;;;5018734;28;20120;-68
2023/11/02 05:16:23;;;;;;;5.07;1.20;;;13.50;99.90;;;;;;5018520;28;20133;-69
2023/11/02 05:18:48;;;;;;;7.70;2.03;;;13.60;99.90;;;;;;5013309;28;20121;-68
2023/11/02 05:21:14;;;;;;;5.30;2.00;;;13.50;99.90;;;;;;5019690;28;20490;-68
2023/11/02 05:23:39;;;;;;;3.90;1.00;;;13.60;99.90;;;;;;5021520;28;20065;-68
2023/11/02 05:26:05;;;;;;;3.70;1.00;;;13.70;99.90;;;;;;5021924;28;20480;-70
2023/11/02 05:28:31;;;;;;;12.48;1.58;;;13.70;99.90;;;;;;5020545;28;20041;-70
2023/11/02 05:30:57;;;;;;;7.93;0.93;;;13.60;99.90;;;;;;5020472;28;20038;-67
2023/11/02 05:33:23;;;;;;;4.82;1.27;;;13.60;99.90;;;;;;5020934;28;20069;-67
2023/11/02 05:35:52;;;;;;;2.30;1.10;;;13.70;99.90;;;;;;5021205;28;20045;-66
2023/11/02 05:38:21;;;;;;;4.90;0.95;;;13.70;99.90;;;;;;5021355;28;20107;-68
2023/11/02 05:40:47;;;;;;;5.47;1.23;;;13.60;99.90;;;;;;5019582;28;20099;-68
2023/11/02 05:43:13;;;;;;;2.23;1.00;;;13.70;99.90;;;;;;5011570;28;20477;-66
2023/11/02 05:45:39;;;;;;;5.07;1.20;;;13.70;99.90;;;;;;5021029;28;20304;-68
2023/11/02 05:48:05;;;;;;;4.60;1.10;;;13.70;99.90;;;;;;5012263;28;20052;-68
2023/11/02 05:50:31;;;;;;;7.70;1.20;;;13.70;99.90;;;;;;5021887;28;20083;-67
2023/11/02 05:52:57;;;;;;;5.97;1.10;;;13.90;99.90;;;;;;5019611;28;20092;-67
2023/11/02 05:55:22;;;;;;;2.60;0.83;;;13.90;99.90;;;;;;5020579;28;20453;-68
2023/11/02 05:57:49;;;;;;;2.88;1.27;;;14.00;99.90;;;;;;5021476;28;20079;-68
2023/11/02 06:00:16;;;;;;;3.92;1.00;;;13.90;99.90;;;;;;5020244;28;20037;-68
2023/11/02 06:02:42;;;;;;;2.83;1.10;;;14.10;99.90;;;;;;5018809;28;20026;-70
2023/11/02 06:05:08;;;;;;;7.78;1.48;;;14.00;99.90;;;;;;5016707;28;20029;-70
2023/11/02 06:07:35;;;;;;;9.93;1.10;;;14.00;99.90;;;;;;5021781;28;20071;-72
2023/11/02 06:10:01;;;;;;;3.08;1.17;;;14.10;99.90;;;;;;5017975;28;20488;-69
2023/11/02 06:12:27;;;;;;;3.28;0.90;;;13.90;99.90;;;;;;5018694;28;20076;-72
2023/11/02 06:14:53;;;;;;;4.15;1.25;;;14.10;99.90;;;;;;5021279;28;20033;-68
2023/11/02 06:17:19;;;;;;;5.97;1.33;;;13.90;99.90;;;;;;5023403;28;20063;-70
2023/11/02 06:19:44;;;;;;;2.87;1.03;;;13.80;99.90;;;;;;5023357;28;20033;-69
2023/11/02 06:22:10;;;;;;;5.87;1.30;;;13.70;99.90;;;;;;5017800;28;20022;-71
2023/11/02 06:24:37;;;;;;;4.03;1.10;;;13.70;99.90;;;;;;5019547;28;20387;-70
2023/11/02 06:27:04;;;;;;;2.60;1.40;;;13.60;99.90;;;;;;5020428;28;20025;-76
2023/11/02 06:29:29;;;;;;;10.10;1.30;;;13.50;99.90;;;;;;5019483;28;20109;-75
2023/11/02 06:31:55;;;;;;;2.87;1.10;;;13.50;99.90;;;;;;5017973;28;20137;-72
2023/11/02 06:34:21;;;;;;;3.20;1.13;;;13.60;99.90;;;;;;5022020;28;20382;-75
2023/11/02 06:36:46;;;;;;;3.07;1.00;;;13.50;99.90;;;;;;5022365;28;20057;-71
2023/11/02 06:39:16;;;;;;;2.97;1.27;;;13.40;99.90;;;;;;5020451;28;20018;-74
2023/11/02 06:41:42;;;;;;;6.05;1.50;;;13.50;99.90;;;;;;5022288;28;20029;-68
2023/11/02 06:44:08;;;;;;;6.40;1.20;;;13.40;99.90;;;;;;5020867;28;20378;-71
2023/11/02 06:46:33;;;;;;;3.13;0.90;;;13.40;99.90;;;;;;5014103;28;20026;-69
2023/11/02 06:48:59;;;;;;;3.77;1.20;;;13.40;99.90;;;;;;5019844;28;20032;-69
2023/11/02 06:51:25;;;;;;;4.53;1.40;;;13.40;99.90;;;;;;5017613;28;20441;-68
2023/11/02 06:53:51;;;;;;;;;;;13.40;99.90;;;;;;5025400;28;20034;-67
2023/11/02 06:56:17;;;;;;;4.05;1.30;;;13.50;99.90;;;;;;5021769;28;19917;-68
2023/11/02 06:58:43;;;;;;;2.40;1.27;;;13.40;99.90;;;;;;5026050;28;20104;-66
2023/11/02 07:01:08;;;;;;;13.07;1.87;;;13.40;99.90;;;;;;5023003;28;20037;-68
2023/11/02 07:03:34;;;;;;;4.37;1.40;;;13.40;99.90;;;;;;5021208;28;20018;-66
2023/11/02 07:06:00;;;;;;;4.97;1.67;;;13.30;99.90;;;;;;5022217;28;20029;-68
2023/11/02 07:08:26;;;;;;;4.23;1.43;;;13.40;99.90;;;;;;5022601;28;20033;-67
2023/11/02 07:10:51;;;;;;;7.65;1.63;;;13.40;99.90;;;;;;5020646;28;20405;-68
2023/11/02 07:13:18;;;;;;;6.88;2.30;;;13.40;99.90;;;;;;5025641;28;20049;-69
2023/11/02 07:15:44;;;;;;;9.40;1.70;;;13.50;99.90;;;;;;5018508;28;20125;-68
2023/11/02 07:18:10;;;;;;;9.30;1.98;;;13.30;99.90;;;;;;5018631;28;20461;-70
2023/11/02 07:20:36;;;;;;;4.07;1.75;;;13.10;99.90;;;;;;5019718;28;20041;-68
2023/11/02 07:23:01;;;;;;;8.67;1.60;;;12.90;99.90;;;;;;5016021;28;20022;-68
2023/11/02 07:25:27;;;;;;;6.77;2.50;;;12.80;99.90;;;;;;5020663;28;20029;-69
2023/11/02 07:27:52;;;;;;;4.43;1.57;;;12.80;99.90;;;;;;5015092;28;20064;-68
2023/11/02 07:30:18;;;;;;;11.70;4.43;;;12.70;99.90;;;;;;5019230;28;20065;-68
2023/11/02 07:32:44;;;;;;;4.78;1.20;;;12.70;99.90;;;;;;5019818;28;20034;-69
2023/11/02 07:35:10;;;;;;;5.60;1.93;;;12.70;99.90;;;;;;5017820;28;20141;-67
2023/11/02 07:37:36;;;;;;;0.70;0.60;;;12.70;99.90;;;;;;5020179;28;20034;-68
2023/11/02 07:40:04;;;;;;;4.95;0.70;;;12.50;99.90;;;;;;5018033;28;20037;-69
2023/11/02 07:42:30;;;;;;;5.55;1.10;;;12.50;99.90;;;;;;5014346;28;20026;-69
2023/11/02 07:44:55;;;;;;;1.77;1.00;;;12.40;99.90;;;;;;5023212;28;20052;-69
2023/11/02 07:47:21;;;;;;;1.73;0.77;;;12.40;99.90;;;;;;5019956;28;20037;-69
2023/11/02 07:49:46;;;;;;;4.83;1.47;;;12.40;99.90;;;;;;5020408;28;20033;-68
2023/11/02 07:52:12;;;;;;;8.20;1.20;;;12.30;99.90;;;;;;5021121;28;20032;-70
2023/11/02 07:54:38;;;;;;;2.47;0.70;;;12.30;99.90;;;;;;5022636;28;20747;-71
2023/11/02 07:57:08;;;;;;;3.70;1.20;;;12.20;99.90;;;;;;5019087;28;20079;-71
2023/11/02 07:59:37;;;;;;;7.68;1.25;;;12.20;99.90;;;;;;5017494;28;20124;-70
2023/11/02 08:02:03;;;;;;;4.10;1.00;;;12.20;99.90;;;;;;5014877;28;20103;-69
2023/11/02 08:04:29;;;;;;;2.63;0.98;;;12.20;99.90;;;;;;5013222;28;20382;-70
2023/11/02 08:06:55;;;;;;;1.98;1.00;;;12.20;99.90;;;;;;5015944;28;20045;-69
2023/11/02 08:09:21;;;;;;;2.65;1.10;;;12.20;99.90;;;;;;5016621;28;20032;-69
2023/11/02 08:11:47;;;;;;;6.63;0.80;;;12.10;99.90;;;;;;5016207;28;20485;-69
2023/11/02 08:14:12;;;;;;;2.70;0.70;;;12.20;99.90;;;;;;5014288;28;20034;-69
2023/11/02 08:16:38;;;;;;;3.60;0.70;;;12.10;99.90;;;;;;5012778;28;20513;-67
2023/11/02 08:19:03;;;;;;;1.50;0.63;;;12.00;99.90;;;;;;5012564;28;20040;-69
2023/11/02 08:21:29;;;;;;;4.90;0.87;;;12.00;99.90;;;;;;5020766;28;20052;-70
2023/11/02 08:23:56;;;;;;;2.55;0.80;;;12.00;99.90;;;;;;5020388;28;20032;-70
2023/11/02 08:26:23;;;;;;;1.55;0.60;;;12.00;99.90;;;;;;5019070;28;20045;-70
2023/11/02 08:28:52;;;;;;;0.40;0.40;;;11.90;99.90;;;;;;5023666;28;20026;-71
2023/11/02 08:31:29;;;;;;;2.60;0.63;;;12.00;99.90;;;;;;5022748;28;20095;-72
2023/11/02 08:33:56;;;;;;;3.30;1.05;;;11.90;99.90;;;;;;5018291;28;20021;-71
2023/11/02 08:36:23;;;;;;;2.20;1.08;;;11.80;99.90;;;;;;5022728;28;20091;-72
2023/11/02 08:38:49;;;;;;;1.63;0.50;;;11.70;99.90;;;;;;5022043;28;20388;-70
2023/11/02 08:41:19;;;;;;;1.17;0.60;;;11.70;99.90;;;;;;5013805;28;20034;-70
2023/11/02 08:43:47;;;;;;;1.60;0.30;;;11.80;99.90;;;;;;5019419;28;20283;-71
2023/11/02 08:46:18;;;;;;;0.45;0.43;;;11.60;99.90;;;;;;5015568;28;20531;-70
2023/11/02 08:48:48;;;;;;;7.50;0.50;;;11.70;99.90;;;;;;5027773;28;20033;-71
2023/11/02 08:51:22;;;;;;;1.48;0.50;;;11.60;99.90;;;;;;5024531;28;20025;-70
2023/11/02 08:53:47;;;;;;;1.70;0.40;;;11.50;99.90;;;;;;5021544;28;20036;-70
2023/11/02 08:56:14;;;;;;;2.13;0.57;;;11.50;99.90;;;;;;5028002;28;20497;-71
2023/11/02 08:58:47;;;;;;;1.98;0.60;;;11.40;99.90;;;;;;5028713;28;20021;-73
2023/11/02 09:01:24;;;;;;;1.90;0.57;;;11.40;99.90;;;;;;5023505;28;20416;-71
2023/11/02 09:03:54;;;;;;;2.08;0.65;;;11.10;99.90;;;;;;5025162;28;20025;-74
2023/11/02 09:06:20;;;;;;;3.70;0.70;;;11.30;99.90;;;;;;5024913;28;20034;-70
2023/11/02 09:08:47;;;;;;;;;;;11.10;99.90;;;;;;5028959;28;20553;-70
2023/11/02 09:11:14;;;;;;;2.72;0.60;;;11.10;99.90;;;;;;5018964;28;19920;-70
2023/11/02 09:13:39;;;;;;;0.90;0.50;;;11.20;99.90;;;;;;5025784;28;20041;-68
2023/11/02 09:16:06;;;;;;;4.67;0.50;;;11.30;99.90;;;;;;5026423;28;20046;-68
2023/11/02 09:18:31;;;;;;;3.72;0.73;;;11.30;99.90;;;;;;5029244;28;20445;-71
2023/11/02 09:20:57;;;;;;;2.30;0.80;;;11.10;99.90;;;;;;5026465;28;20052;-71
2023/11/02 09:23:22;;;;;;;1.13;0.87;;;11.00;99.90;;;;;;5024154;28;20033;-72
2023/11/02 09:25:48;;;;;;;2.03;1.10;;;10.90;99.90;;;;;;5024392;28;20108;-72
2023/11/02 09:28:15;;;;;;;5.05;1.70;;;10.80;99.90;;;;;;5027139;28;20076;-72
2023/11/02 09:30:45;;;;;;;3.80;1.00;;;10.90;99.90;;;;;;5025412;28;20037;-71
2023/11/02 09:33:11;;;;;;;2.85;1.52;;;10.90;99.90;;;;;;5019510;28;20448;-73
2023/11/02 09:35:37;;;;;;;2.58;1.15;;;10.90;99.90;;;;;;5024675;28;20037;-73
2023/11/02 09:38:03;;;;;;;2.30;1.10;;;10.80;99.90;;;;;;5016820;28;20049;-70
2023/11/02 09:40:29;;;;;;;7.50;0.80;;;10.70;99.90;;;;;;5024483;28;20026;-73
2023/11/02 09:42:55;;;;;;;1.80;1.00;;;10.70;99.90;;;;;;5022595;28;20021;-71
2023/11/02 09:45:21;;;;;;;12.10;2.25;;;10.70;99.90;;;;;;5018770;28;20038;-71
2023/11/02 09:47:47;;;;;;;4.55;1.27;;;10.70;99.90;;;;;;5021630;28;20080;-69
2023/11/02 09:50:13;;;;;;;3.42;1.13;;;10.70;99.90;;;;;;5015609;28;20045;-68
2023/11/02 09:52:39;;;;;;;3.30;1.20;;;10.80;99.90;;;;;;5017032;28;20073;-69
2023/11/02 09:55:05;;;;;;;;;;;10.80;99.90;;;;;;5021176;28;20285;-74
2023/11/02 09:57:32;;;;;;;4.03;1.10;;;10.70;99.90;;;;;;5026942;28;19913;-67
2023/11/02 09:59:59;;;;;;;2.45;1.15;;;10.70;99.90;;;;;;5020628;28;20034;-71
2023/11/02 10:02:25;;;;;;;1.20;0.73;;;10.70;99.90;;;;;;5023215;28;20060;-69
2023/11/02 10:04:51;;;;;;;7.47;1.43;;;10.60;99.90;;;;;;5023288;28;20077;-70
2023/11/02 10:07:20;;;;;;;1.92;1.08;;;10.40;99.90;;;;;;5025329;28;20288;-68
2023/11/02 10:09:48;;;;;;;3.58;1.25;;;10.30;99.90;;;;;;5022993;28;20034;-71
2023/11/02 10:12:14;;;;;;;4.97;1.05;;;10.30;99.90;;;;;;5021773;28;20080;-70
2023/11/02 10:14:39;;;;;;;7.73;1.60;;;10.20;99.90;;;;;;5021131;28;20038;-70
2023/11/02 10:17:05;;;;;;;5.67;1.77;;;10.20;99.90;;;;;;5024131;28;20033;-70
2023/11/02 10:19:32;;;;;;;3.28;0.98;;;10.20;99.90;;;;;;5023269;28;21475;-69
2023/11/02 10:21:58;;;;;;;;;;;10.20;99.90;;;;;;5021944;28;20040;-70
2023/11/02 10:24:32;;;;;;;4.43;1.42;;;10.20;99.90;;;;;;5018688;28;19913;-69
2023/11/02 10:26:58;;;;;;;2.22;0.93;;;10.10;99.90;;;;;;5017357;28;20030;-69
2023/11/02 10:29:25;;;;;;;2.47;1.00;;;10.10;99.90;;;;;;5017225;28;20045;-70
2023/11/02 10:31:54;;;;;;;2.92;1.05;;;10.10;99.90;;;;;;5019812;28;20444;-69
2023/11/02 10:34:20;;;;;;;1.75;1.08;;;10.10;99.90;;;;;;5023303;28;20033;-70
2023/11/02 10:36:47;;;;;;;4.35;1.05;;;10.10;99.90;;;;;;5019794;28;20064;-68
2023/11/02 10:39:25;;;;;;;5.55;0.93;;;10.10;99.90;;;;;;5025323;28;20084;-70
2023/11/02 10:41:58;;;;;;;2.00;1.00;;;10.20;99.90;;;;;;5021631;28;20654;-70
2023/11/02 10:44:28;;;;;;;2.92;1.05;;;10.30;99.90;;;;;;5021534;28;20493;-69
2023/11/02 10:47:01;;;;;;;1.00;0.75;;;10.40;99.90;;;;;;5025435;28;20120;-70
2023/11/02 10:49:33;;;;;;;4.15;0.90;;;10.50;99.90;;;;;;5023786;28;20036;-69
2023/11/02 10:52:02;;;;;;;1.70;0.63;;;10.30;99.90;;;;;;5025605;28;20112;-68
2023/11/02 10:54:54;;;;;;;0.82;0.70;;;10.40;99.90;;;;;;5021424;28;20413;-68
2023/11/02 10:57:24;;;;;;;1.27;1.10;;;10.40;99.90;;;;;;5019912;28;20499;-69
2023/11/02 10:59:50;;;;;;;2.55;1.15;;;10.40;99.90;;;;;;5024062;28;20064;-70
2023/11/02 11:02:17;;;;;;;4.53;1.30;;;10.50;99.90;;;;;;5023049;28;20652;-69
2023/11/02 11:04:44;;;;;;;2.63;1.27;;;10.40;99.90;;;;;;5022101;28;20049;-69
2023/11/02 11:07:10;;;;;;;2.15;1.23;;;10.30;99.90;;;;;;5025491;28;20044;-68
2023/11/02 11:09:38;;;;;;;2.22;1.00;;;10.40;99.90;;;;;;5023295;28;20088;-67
2023/11/02 11:12:05;;;;;;;2.33;1.20;;;10.50;99.90;;;;;;5024455;28;20067;-67
2023/11/02 11:14:31;;;;;;;2.03;0.93;;;10.40;99.90;;;;;;5025987;28;20135;-69
2023/11/02 11:16:58;;;;;;;0.90;0.80;;;10.30;99.90;;;;;;5022197;28;20480;-68
2023/11/02 11:19:28;;;;;;;2.05;1.17;;;10.40;99.90;;;;;;5024837;28;20102;-69
2023/11/02 11:21:57;;;;;;;2.38;1.50;;;10.40;99.90;;;;;;5024009;28;20037;-68
2023/11/02 11:24:29;;;;;;;1.98;1.50;;;10.50;99.90;;;;;;5024884;28;20062;-68
2023/11/02 11:26:56;;;;;;;2.72;1.70;;;10.40;99.90;;;;;;5025539;28;20033;-70
2023/11/02 11:29:39;;;;;;;2.13;1.33;;;10.50;99.90;;;;;;5021716;28;20026;-69
2023/11/02 11:32:29;;;;;;;2.42;1.73;;;10.50;99.90;;;;;;5024615;28;20029;-69
2023/11/02 11:34:58;;;;;;;3.58;1.52;;;10.60;99.90;;;;;;5019814;28;20505;-67
2023/11/02 11:37:47;;;;;;;3.47;1.77;;;10.60;99.90;;;;;;5021277;28;20079;-68
2023/11/02 11:40:19;;;;;;;1.95;1.08;;;10.70;99.90;;;;;;5023641;28;20044;-68
2023/11/02 11:42:54;;;;;;;1.48;1.15;;;10.80;99.90;;;;;;5024111;28;20429;-69
2023/11/02 11:45:31;;;;;;;3.45;1.10;;;10.80;99.90;;;;;;5025591;28;20029;-69
2023/11/02 11:48:12;;;;;;;2.83;1.30;;;11.00;99.90;;;;;;5022708;28;20492;-69
2023/11/02 11:50:40;;;;;;;2.92;1.30;;;10.90;99.90;;;;;;5025024;28;20408;-70
2023/11/02 11:53:15;;;;;;;5.13;1.15;;;10.90;99.90;;;;;;5021221;28;20079;-70
2023/11/02 11:55:45;;;;;;;4.22;1.35;;;10.80;99.90;;;;;;5021267;28;20170;-70
2023/11/02 11:58:11;;;;;;;7.43;1.00;;;10.90;99.90;;;;;;5022234;28;20026;-71
2023/11/02 12:01:02;;;;;;;1.33;1.08;;;10.90;99.90;;;;;;5023038;28;20030;-70
2023/11/02 12:03:34;;;;;;;1.08;0.80;;;10.90;99.90;;;;;;5020633;28;20082;-70
2023/11/02 12:06:00;;;;;;;0.90;0.60;;;11.00;99.90;;;;;;5021780;28;20504;-70
2023/11/02 12:08:26;;;;;;;;;;;11.10;99.90;;;;;;5024258;28;20083;-70
2023/11/02 12:10:54;;;;;;;1.77;0.80;;;11.30;99.90;;;;;;5023574;28;19909;-70
2023/11/02 12:13:20;;;;;;;1.08;0.60;;;11.30;99.90;;;;;;5021001;28;20057;-70
2023/11/02 12:16:01;;;;;;;2.67;1.08;;;11.30;99.90;;;;;;5019952;28;20087;-71
2023/11/02 12:18:31;;;;;;;1.77;0.80;;;11.30;99.90;;;;;;5021546;28;20382;-71
2023/11/02 12:20:59;;;;;;;0.80;0.80;;;11.20;99.90;;;;;;5021080;28;20117;-71
2023/11/02 12:23:35;;;;;;;2.78;0.95;;;11.20;99.90;;;;;;5015114;28;20108;-69
2023/11/02 12:26:03;;;;;;;3.03;1.10;;;11.20;99.90;;;;;;5018872;28;20128;-70
2023/11/02 12:28:45;;;;;;;4.43;1.15;;;11.20;99.90;;;;;;5021221;28;20036;-70
2023/11/02 12:31:12;;;;;;;1.55;0.80;;;11.30;99.90;;;;;;5017626;28;20029;-70
2023/11/02 12:33:38;;;;;;;4.18;0.98;;;11.50;99.90;;;;;;5017322;28;20037;-70
2023/11/02 12:36:05;;;;;;;1.45;0.70;;;11.50;99.90;;;;;;5015323;28;20037;-70
2023/11/02 12:38:40;;;;;;;1.40;0.60;;;11.50;99.90;;;;;;5021096;28;20034;-70
2023/11/02 12:41:06;;;;;;;3.60;0.70;;;11.70;99.90;;;;;;5021743;28;20103;-70
2023/11/02 12:43:34;;;;;;;3.13;0.80;;;11.80;99.90;;;;;;5023883;28;20420;-71
2023/11/02 12:46:08;;;;;;;1.83;0.70;;;11.90;99.90;;;;;;5024036;28;20096;-69
2023/11/02 12:48:39;;;;;;;0.80;0.70;;;12.00;99.90;;;;;;5014213;28;20026;-70
2023/11/02 12:51:18;;;;;;;1.75;0.73;;;12.30;99.90;;;;;;5013360;28;20526;-70
2023/11/02 12:53:44;;;;;;;2.53;0.82;;;12.60;99.90;;;;;;5023853;28;20025;-71
2023/11/02 12:56:12;;;;;;;2.08;0.95;;;12.70;99.90;;;;;;5022818;28;20068;-70
2023/11/02 12:58:38;;;;;;;1.08;0.70;;;12.70;99.90;;;;;;5016049;28;20033;-70
2023/11/02 13:01:04;;;;;;;2.28;0.70;;;12.90;99.90;;;;;;5016896;28;20037;-70
2023/11/02 13:03:31;;;;;;;1.37;0.70;;;13.10;99.90;;;;;;5018482;28;20029;-68